Pagrindinis puslapis
METAR-TAF:

METAR-TAF

Oro uostai :

Chinandega, Nikaragva

platuma: 12-38N, ilguma: 087-08W, Aukštis: 53 m

Dabartinis oras

Ataskaita buvo paskelbta 1 valandą ir 17 minutes, ne 22:00 UTC
Vėjas 4 kt iš Rytų
Temperatūra 37°C
Drėgmė 29%
Slėgis 1010 hPa
Matomumas 10 km arba daugiau
Mažai debesys ne aukštis 2500 ft
Išsisklaidę debesys ne aukštis 9000 ft

METAR: MNCH 212200Z 09004KT 9999 FEW025 SCT090 37/16 Q1010

Laikas: 17:17 (23:17 UTC)


TAF: trūkstamas

Orai ataskaitas ir orų prognozės (METAR, TAF).

turimą stotys yra geltonos ir raudonos taškus žemėlapyje.

Perkelti pele per norėdami pamatyti stoties vardą.

Tada spustelėkite, norėdami matyti oro stebėjimo ir prognozės.

Norėdami pakeisti žemėlapį: spustelėkite ant žalios mygtukų su juodo kryžiaus žemyn,; žalią mygtuką su brūkšneliu, jei norite nutolinti; arba žalių rodyklių gretimoms žemėlapius.


METAR-TAF: